createdAt,value
2022-11-26T00:02:20.306Z,64.10
2022-11-26T00:04:49.213Z,66.93
2022-11-26T00:07:22.155Z,61.20
2022-11-26T00:09:51.200Z,52.20
2022-11-26T00:12:20.812Z,52.67
2022-11-26T00:14:49.305Z,48.77
2022-11-26T00:17:19.639Z,63.17
2022-11-26T00:19:48.472Z,58.50
2022-11-26T00:22:24.326Z,58.03
2022-11-26T00:24:53.095Z,64.73
2022-11-26T00:27:22.147Z,63.90
2022-11-26T00:29:50.372Z,64.70
2022-11-26T00:32:21.680Z,57.63
2022-11-26T00:34:50.585Z,60.63
2022-11-26T00:37:23.488Z,58.43
2022-11-26T00:39:52.708Z,71.40
2022-11-26T00:42:21.345Z,80.57
2022-11-26T00:44:50.133Z,70.93
2022-11-26T00:47:19.767Z,59.43
2022-11-26T00:49:48.239Z,71.23
2022-11-26T00:52:35.687Z,65.20
2022-11-26T00:55:12.206Z,64.63
2022-11-26T00:57:40.601Z,72.53
2022-11-26T01:00:16.807Z,73.60
2022-11-26T01:02:47.267Z,77.10
2022-11-26T01:05:16.331Z,68.80
2022-11-26T01:07:45.289Z,63.60
2022-11-26T01:10:18.575Z,74.83
2022-11-26T01:12:47.308Z,71.03
2022-11-26T01:15:16.377Z,83.30
2022-11-26T01:17:45.995Z,73.47
2022-11-26T01:20:25.457Z,71.17
2022-11-26T01:22:54.951Z,72.63
2022-11-26T01:25:24.643Z,66.97
2022-11-26T01:27:53.298Z,82.20
2022-11-26T01:30:24.168Z,71.87
2022-11-26T01:32:54.529Z,67.87
2022-11-26T01:35:23.368Z,68.07
2022-11-26T01:37:51.827Z,62.63
2022-11-26T01:40:44.312Z,64.87
2022-11-26T01:43:16.647Z,68.00
2022-11-26T01:45:45.057Z,71.93
2022-11-26T01:48:28.499Z,65.67
2022-11-26T01:51:03.981Z,68.60
2022-11-26T01:53:39.016Z,74.20
2022-11-26T01:56:14.262Z,71.17
2022-11-26T01:58:46.478Z,67.73
2022-11-26T02:01:16.070Z,72.20
2022-11-26T02:03:53.912Z,65.17
2022-11-26T02:06:27.096Z,68.77
2022-11-26T02:08:57.244Z,79.20
2022-11-26T02:11:26.753Z,74.63
2022-11-26T02:13:58.876Z,63.87
2022-11-26T02:16:53.192Z,65.83
2022-11-26T02:19:54.532Z,72.23
2022-11-26T02:22:45.618Z,71.43
2022-11-26T02:25:21.003Z,66.80
2022-11-26T02:28:16.334Z,67.53
2022-11-26T02:30:49.449Z,67.23
2022-11-26T02:33:22.579Z,69.73
2022-11-26T02:35:56.964Z,67.90
2022-11-26T02:38:30.373Z,68.63
2022-11-26T02:40:58.734Z,66.63
2022-11-26T02:43:28.309Z,71.63
2022-11-26T02:46:01.818Z,63.93
2022-11-26T02:48:34.388Z,66.27
2022-11-26T02:51:06.461Z,66.30
2022-11-26T02:53:36.542Z,56.27
2022-11-26T02:56:08.625Z,69.73
2022-11-26T02:58:40.180Z,58.03
2022-11-26T03:01:14.668Z,49.43
2022-11-26T03:03:48.661Z,67.37
2022-11-26T03:06:18.466Z,65.97
2022-11-26T03:08:46.910Z,55.13
2022-11-26T03:11:15.229Z,57.60
2022-11-26T03:13:43.563Z,60.03
2022-11-26T03:16:13.230Z,57.73
2022-11-26T03:18:41.601Z,58.50
2022-11-26T03:21:10.253Z,59.93
2022-11-26T03:23:38.573Z,51.73
2022-11-26T03:26:06.849Z,58.30
2022-11-26T03:28:35.172Z,63.00
2022-11-26T03:31:03.525Z,61.90
2022-11-26T03:33:33.123Z,56.07
2022-11-26T03:36:01.444Z,50.33
2022-11-26T03:38:29.776Z,55.73
2022-11-26T03:41:01.452Z,56.13
2022-11-26T03:43:30.355Z,62.63
2022-11-26T03:45:58.740Z,61.87
2022-11-26T03:48:27.035Z,56.70
2022-11-26T03:50:56.754Z,50.33
2022-11-26T03:53:25.000Z,51.73
2022-11-26T03:55:53.365Z,52.60
2022-11-26T03:58:21.611Z,48.77
2022-11-26T04:00:49.895Z,50.17
2022-11-26T04:03:18.209Z,56.50
2022-11-26T04:05:46.542Z,48.80
2022-11-26T04:08:16.224Z,49.73
2022-11-26T04:10:44.520Z,52.17
2022-11-26T04:13:12.831Z,43.20
2022-11-26T04:15:41.080Z,47.03
2022-11-26T04:18:09.384Z,49.37
2022-11-26T04:20:37.699Z,44.33
2022-11-26T04:23:05.957Z,53.03
2022-11-26T04:25:35.863Z,48.27
2022-11-26T04:28:04.163Z,43.60
2022-11-26T04:30:32.516Z,45.27
2022-11-26T04:33:00.801Z,45.63
2022-11-26T04:35:29.057Z,40.47
2022-11-26T04:37:57.330Z,50.67
2022-11-26T04:40:25.587Z,54.00
2022-11-26T04:42:55.298Z,53.90
2022-11-26T04:45:23.569Z,47.27
2022-11-26T04:47:51.919Z,40.23
2022-11-26T04:50:20.363Z,50.57
2022-11-26T04:52:49.476Z,43.47
2022-11-26T04:55:18.624Z,44.57
2022-11-26T04:57:48.710Z,51.23
2022-11-26T05:00:19.734Z,44.67
2022-11-26T05:02:48.051Z,49.87
2022-11-26T05:05:16.728Z,59.60
2022-11-26T05:07:45.146Z,53.27
2022-11-26T05:10:14.202Z,58.90
2022-11-26T05:12:42.495Z,50.73
2022-11-26T05:15:11.472Z,45.13
2022-11-26T05:17:41.137Z,54.07
2022-11-26T05:20:10.436Z,48.60
2022-11-26T05:22:38.888Z,48.33
2022-11-26T05:25:07.664Z,51.37
2022-11-26T05:27:35.988Z,55.60
2022-11-26T05:30:05.105Z,52.83
2022-11-26T05:32:33.407Z,54.37
2022-11-26T05:35:03.089Z,55.33
2022-11-26T05:37:31.291Z,41.80
2022-11-26T05:39:59.625Z,49.17
2022-11-26T05:42:27.887Z,46.73
2022-11-26T05:44:56.210Z,42.50
2022-11-26T05:47:24.614Z,44.50
2022-11-26T05:49:53.017Z,45.40
2022-11-26T05:52:22.981Z,47.97
2022-11-26T05:54:51.259Z,46.30
2022-11-26T05:57:20.182Z,62.93
2022-11-26T05:59:49.222Z,37.93
2022-11-26T06:02:20.199Z,51.57
2022-11-26T06:04:48.591Z,43.20
2022-11-26T06:07:16.939Z,39.03
2022-11-26T06:09:46.715Z,42.33
2022-11-26T06:12:14.992Z,40.50
2022-11-26T06:14:43.751Z,58.33
2022-11-26T06:17:12.260Z,40.40
2022-11-26T06:19:40.705Z,43.67
2022-11-26T06:22:09.373Z,35.17
2022-11-26T06:24:38.093Z,38.63
2022-11-26T06:27:07.881Z,44.83
2022-11-26T06:29:36.308Z,41.73
2022-11-26T06:32:04.942Z,40.63
2022-11-26T06:34:33.441Z,40.30
2022-11-26T06:37:01.973Z,54.73
2022-11-26T06:39:30.307Z,40.73
2022-11-26T06:41:58.630Z,42.23
2022-11-26T06:44:28.256Z,45.20
2022-11-26T06:46:56.510Z,34.93
2022-11-26T06:49:24.861Z,41.77
2022-11-26T06:51:54.055Z,42.47
2022-11-26T06:54:22.475Z,45.10
2022-11-26T06:56:50.768Z,38.53
2022-11-26T06:59:19.058Z,37.77
2022-11-26T07:01:48.840Z,48.37
2022-11-26T07:04:17.193Z,48.47
2022-11-26T07:06:47.030Z,41.40
2022-11-26T07:09:15.450Z,44.27
2022-11-26T07:11:44.174Z,38.07
2022-11-26T07:14:12.468Z,42.10
2022-11-26T07:16:40.772Z,35.60
2022-11-26T07:19:14.256Z,48.23
2022-11-26T07:21:42.794Z,34.07
2022-11-26T07:24:11.153Z,38.90
2022-11-26T07:26:39.416Z,45.77
2022-11-26T07:29:08.069Z,47.93
2022-11-26T07:31:37.103Z,42.30
2022-11-26T07:34:05.503Z,38.73
2022-11-26T07:36:35.194Z,46.50
2022-11-26T07:39:03.859Z,42.30
2022-11-26T07:41:32.303Z,39.63
2022-11-26T07:44:00.575Z,40.03
2022-11-26T07:46:28.979Z,44.43
2022-11-26T07:48:57.872Z,40.03
2022-11-26T07:51:27.992Z,52.50
2022-11-26T07:53:58.527Z,40.03
2022-11-26T07:56:27.334Z,42.37
2022-11-26T07:58:56.385Z,53.80
2022-11-26T08:01:29.657Z,36.77
2022-11-26T08:03:58.736Z,37.17
2022-11-26T08:06:28.656Z,37.20
2022-11-26T08:09:02.211Z,45.47
2022-11-26T08:11:32.101Z,41.23
2022-11-26T08:14:02.128Z,38.00
2022-11-26T08:16:30.842Z,42.47
2022-11-26T08:19:00.977Z,38.10
2022-11-26T08:21:29.517Z,43.80
2022-11-26T08:24:00.190Z,41.83
2022-11-26T08:26:35.917Z,41.97
2022-11-26T08:29:05.886Z,39.33
2022-11-26T08:31:34.953Z,36.70
2022-11-26T08:34:05.186Z,40.20
2022-11-26T08:36:33.977Z,36.83
2022-11-26T08:39:03.717Z,40.07
2022-11-26T08:41:31.996Z,39.97
2022-11-26T08:44:08.304Z,38.27
2022-11-26T08:46:37.296Z,37.93
2022-11-26T08:49:06.051Z,35.00
2022-11-26T08:51:34.533Z,34.30
2022-11-26T08:54:04.241Z,40.03
2022-11-26T08:56:32.569Z,34.90
2022-11-26T08:59:00.820Z,40.20
2022-11-26T09:01:32.426Z,31.10
2022-11-26T09:04:06.363Z,45.43
2022-11-26T09:06:36.805Z,38.97
2022-11-26T09:09:14.015Z,40.87
2022-11-26T09:11:44.883Z,42.80
2022-11-26T09:14:13.840Z,46.20
2022-11-26T09:16:42.388Z,42.40
2022-11-26T09:19:13.260Z,38.27
2022-11-26T09:21:41.669Z,38.47
2022-11-26T09:24:11.454Z,46.85
2022-11-26T09:26:39.827Z,40.53
2022-11-26T09:29:08.352Z,29.87
2022-11-26T09:31:45.896Z,43.07
2022-11-26T09:34:23.653Z,44.50
2022-11-26T09:36:51.884Z,36.53
2022-11-26T09:39:21.604Z,35.07
2022-11-26T09:41:55.434Z,39.87
2022-11-26T09:44:36.852Z,37.23
2022-11-26T09:47:13.740Z,35.00
2022-11-26T09:49:51.667Z,40.90
2022-11-26T09:52:22.474Z,39.55
2022-11-26T09:54:58.859Z,39.37
2022-11-26T09:57:32.169Z,30.90
2022-11-26T10:00:00.596Z,32.78
2022-11-26T10:02:28.903Z,35.37
2022-11-26T10:04:57.242Z,32.88
2022-11-26T10:07:41.092Z,38.08
2022-11-26T10:10:21.496Z,40.55
2022-11-26T10:15:59.681Z,26.38
2022-11-26T10:18:36.880Z,36.80
2022-11-26T10:21:18.183Z,28.67
2022-11-26T10:23:57.879Z,30.08
2022-11-26T10:26:30.603Z,21.17
2022-11-26T10:29:13.567Z,37.63
2022-11-26T10:31:44.730Z,22.03
2022-11-26T10:34:19.034Z,24.85
2022-11-26T10:36:49.357Z,24.50
2022-11-26T10:39:21.169Z,24.70
2022-11-26T10:41:51.945Z,20.80
2022-11-26T10:44:34.832Z,22.08
2022-11-26T10:47:24.730Z,14.90
2022-11-26T10:49:54.662Z,22.90
2022-11-26T10:52:26.437Z,19.33
2022-11-26T10:55:22.585Z,17.30
2022-11-26T10:57:54.494Z,19.33
2022-11-26T11:00:35.859Z,15.52
2022-11-26T11:03:05.566Z,25.88
2022-11-26T11:05:34.597Z,11.15
2022-11-26T11:08:03.065Z,16.33
2022-11-26T11:10:31.460Z,16.98
2022-11-26T11:13:12.024Z,11.95
2022-11-26T11:15:41.374Z,19.67
2022-11-26T11:18:19.461Z,14.38
2022-11-26T11:20:56.003Z,15.52
2022-11-26T11:23:45.630Z,13.35
2022-11-26T11:26:19.266Z,12.43
2022-11-26T11:28:51.726Z,12.85
2022-11-26T11:31:22.121Z,18.05
2022-11-26T11:33:51.727Z,16.33
2022-11-26T11:36:27.215Z,15.18
2022-11-26T11:38:56.996Z,14.52
2022-11-26T11:41:33.084Z,12.98
2022-11-26T11:44:13.837Z,13.20
2022-11-26T11:47:11.684Z,11.65
2022-11-26T11:49:50.324Z,12.88
2022-11-26T11:52:28.514Z,13.27
2022-11-26T11:55:02.775Z,12.88
2022-11-26T11:57:56.871Z,10.70
2022-11-26T12:00:38.045Z,14.13
2022-11-26T12:03:17.729Z,9.18
2022-11-26T12:06:05.891Z,13.32
2022-11-26T12:08:51.446Z,12.43
2022-11-26T12:11:35.710Z,11.40
2022-11-26T12:14:08.931Z,8.52
2022-11-26T12:16:43.553Z,13.63
2022-11-26T12:19:27.161Z,18.60
2022-11-26T12:22:02.344Z,11.10
2022-11-26T12:24:40.550Z,12.73
2022-11-26T12:27:18.216Z,7.80
2022-11-26T12:29:51.300Z,9.02
2022-11-26T12:32:27.307Z,12.88
2022-11-26T12:34:59.231Z,6.47
2022-11-26T12:37:32.212Z,6.97
2022-11-26T12:40:05.686Z,7.93
2022-11-26T12:42:42.298Z,14.95
2022-11-26T12:45:20.670Z,8.57
2022-11-26T12:47:56.506Z,12.90
2022-11-26T12:50:35.044Z,9.57
2022-11-26T12:53:13.761Z,13.15
2022-11-26T12:55:47.458Z,13.95
2022-11-26T12:58:20.830Z,10.95
2022-11-26T13:00:52.584Z,10.65
2022-11-26T13:03:30.593Z,9.85
2022-11-26T13:06:04.767Z,11.68
2022-11-26T13:08:43.035Z,15.27
2022-11-26T13:11:25.817Z,14.88
2022-11-26T13:14:00.022Z,10.90
2022-11-26T13:16:35.840Z,15.73
2022-11-26T13:19:11.461Z,8.88
2022-11-26T13:21:56.394Z,7.22
2022-11-26T13:24:40.846Z,19.77
2022-11-26T13:27:23.497Z,5.47
2022-11-26T13:30:21.247Z,14.52
2022-11-26T13:33:08.269Z,9.02
2022-11-26T13:36:09.228Z,13.52
2022-11-26T13:38:50.244Z,9.82
2022-11-26T13:41:32.648Z,8.10
2022-11-26T13:44:19.730Z,12.70
2022-11-26T13:46:50.102Z,6.43
2022-11-26T13:49:23.543Z,7.82
2022-11-26T13:51:59.299Z,8.20
2022-11-26T13:54:30.547Z,14.18
2022-11-26T13:57:04.049Z,12.60
2022-11-26T13:59:33.481Z,5.65
2022-11-26T14:02:37.819Z,11.82
2022-11-26T14:05:08.000Z,8.48
2022-11-26T14:07:38.054Z,9.60
2022-11-26T14:10:09.830Z,15.20
2022-11-26T14:13:12.722Z,10.60
2022-11-26T14:16:01.493Z,12.50
2022-11-26T14:19:06.109Z,14.68
2022-11-26T14:22:03.677Z,14.07
2022-11-26T14:25:01.543Z,12.75
2022-11-26T14:27:32.406Z,11.55
2022-11-26T14:30:04.115Z,9.70
2022-11-26T14:32:38.475Z,12.20
2022-11-26T14:35:19.662Z,9.80
2022-11-26T14:37:53.689Z,12.43
2022-11-26T14:40:26.834Z,11.38
2022-11-26T14:43:16.366Z,8.88
2022-11-26T14:45:46.387Z,8.00
2022-11-26T14:48:26.515Z,11.95
2022-11-26T14:50:57.147Z,13.13
2022-11-26T14:53:29.174Z,12.43
2022-11-26T14:55:59.537Z,9.05
2022-11-26T14:58:32.991Z,10.88
2022-11-26T15:01:20.506Z,8.82
2022-11-26T15:03:59.946Z,11.85
2022-11-26T15:06:30.321Z,16.05
2022-11-26T15:09:11.861Z,11.90
2022-11-26T15:11:46.302Z,17.42
2022-11-26T15:14:24.209Z,11.70
2022-11-26T15:16:58.447Z,7.28
2022-11-26T15:19:28.368Z,10.23
2022-11-26T15:21:59.478Z,12.18
2022-11-26T15:24:28.359Z,12.73
2022-11-26T15:26:58.104Z,8.45
2022-11-26T15:29:35.500Z,11.75
2022-11-26T15:32:05.561Z,12.93
2022-11-26T15:34:34.646Z,16.85
2022-11-26T15:37:05.023Z,29.95
2022-11-26T15:39:33.571Z,14.77
2022-11-26T15:42:07.928Z,18.50
2022-11-26T15:44:42.626Z,15.52
2022-11-26T15:47:20.297Z,16.42
2022-11-26T15:49:54.257Z,14.80
2022-11-26T15:52:26.130Z,15.68
2022-11-26T15:55:12.506Z,17.77
2022-11-26T15:57:43.768Z,19.07
2022-11-26T16:00:22.762Z,17.33
2022-11-26T16:02:52.236Z,19.38
2022-11-26T16:05:28.832Z,21.52
2022-11-26T16:07:58.830Z,18.20
2022-11-26T16:10:31.153Z,18.05
2022-11-26T16:13:20.559Z,18.85
2022-11-26T16:15:52.862Z,23.20
2022-11-26T16:18:24.870Z,18.60
2022-11-26T16:21:03.342Z,16.95
2022-11-26T16:23:32.133Z,11.77
2022-11-26T16:26:12.710Z,19.27
2022-11-26T16:28:42.718Z,29.37
2022-11-26T16:31:11.080Z,14.35
2022-11-26T16:33:39.764Z,19.30
2022-11-26T16:36:27.166Z,14.70
2022-11-26T16:38:55.650Z,11.77
2022-11-26T16:41:24.454Z,20.65
2022-11-26T16:43:56.612Z,11.77
2022-11-26T16:46:27.866Z,20.47
2022-11-26T16:48:56.409Z,18.67
2022-11-26T16:51:25.070Z,16.70
2022-11-26T16:53:53.578Z,11.13
2022-11-26T16:56:24.552Z,17.87
2022-11-26T16:58:56.292Z,13.13
2022-11-26T17:01:24.605Z,18.10
2022-11-26T17:03:52.944Z,11.90
2022-11-26T17:06:27.154Z,18.43
2022-11-26T17:08:57.112Z,18.93
2022-11-26T17:11:26.057Z,16.20
2022-11-26T17:13:56.869Z,13.20
2022-11-26T17:16:26.504Z,13.87
2022-11-26T17:18:54.890Z,17.87
2022-11-26T17:21:23.330Z,19.50
2022-11-26T17:23:51.591Z,17.67
2022-11-26T17:26:22.232Z,18.10
2022-11-26T17:28:51.673Z,18.13
2022-11-26T17:31:21.386Z,18.77
2022-11-26T17:33:50.728Z,19.83
2022-11-26T17:36:21.179Z,21.00
2022-11-26T17:38:49.775Z,20.23
2022-11-26T17:41:18.433Z,18.43
2022-11-26T17:43:46.920Z,17.57
2022-11-26T17:46:17.499Z,19.23
2022-11-26T17:48:48.007Z,15.93
2022-11-26T17:51:16.860Z,19.43
2022-11-26T17:53:45.543Z,22.43
2022-11-26T17:56:18.483Z,24.13
2022-11-26T17:58:47.223Z,20.20
2022-11-26T18:01:16.579Z,24.70
2022-11-26T18:03:47.118Z,17.03
2022-11-26T18:06:17.530Z,16.57
2022-11-26T18:08:46.370Z,22.03
2022-11-26T18:11:16.905Z,20.50
2022-11-26T18:13:46.283Z,27.20
2022-11-26T18:16:14.772Z,22.97
2022-11-26T18:18:43.098Z,23.93
2022-11-26T18:21:13.858Z,21.97
2022-11-26T18:23:47.751Z,23.30
2022-11-26T18:26:18.926Z,22.47
2022-11-26T18:28:47.200Z,18.50
2022-11-26T18:31:15.548Z,21.93
2022-11-26T18:33:43.898Z,24.57
2022-11-26T18:36:13.870Z,17.27
2022-11-26T18:38:42.478Z,21.73
2022-11-26T18:41:10.710Z,21.77
2022-11-26T18:43:39.992Z,23.77
2022-11-26T18:46:11.545Z,24.50
2022-11-26T18:48:41.005Z,25.20
2022-11-26T18:51:09.843Z,19.10
2022-11-26T18:53:41.185Z,20.10
2022-11-26T18:56:11.008Z,19.50
2022-11-26T18:58:39.347Z,19.47
2022-11-26T19:01:14.299Z,23.70
2022-11-26T19:03:44.224Z,20.67
2022-11-26T19:06:16.932Z,24.40
2022-11-26T19:08:47.254Z,27.77
2022-11-26T19:11:18.522Z,20.67
2022-11-26T19:13:47.968Z,20.20
2022-11-26T19:16:17.841Z,25.73
2022-11-26T19:18:47.160Z,22.73
2022-11-26T19:21:19.606Z,21.87
2022-11-26T19:23:50.276Z,20.53
2022-11-26T19:26:19.357Z,22.67
2022-11-26T19:28:48.095Z,26.87
2022-11-26T19:31:18.166Z,21.07
2022-11-26T19:33:47.617Z,21.13
2022-11-26T19:36:17.948Z,21.23
2022-11-26T19:38:46.538Z,20.83
2022-11-26T19:41:18.210Z,22.20
2022-11-26T19:43:49.685Z,18.80
2022-11-26T19:46:19.806Z,16.57
2022-11-26T19:48:50.070Z,20.73
2022-11-26T19:51:20.821Z,18.63
2022-11-26T19:53:50.071Z,20.77
2022-11-26T19:56:21.208Z,17.90
2022-11-26T19:58:49.526Z,13.67
2022-11-26T20:01:18.735Z,14.27
2022-11-26T20:03:47.178Z,23.10
2022-11-26T20:06:17.334Z,19.53
2022-11-26T20:08:46.159Z,18.33
2022-11-26T20:11:15.873Z,18.30
2022-11-26T20:13:47.233Z,20.67
2022-11-26T20:16:18.591Z,18.00
2022-11-26T20:18:48.027Z,18.37
2022-11-26T20:21:19.748Z,16.30
2022-11-26T20:23:48.850Z,15.13
2022-11-26T20:26:18.921Z,13.33
2022-11-26T20:28:48.885Z,14.30
2022-11-26T20:31:23.147Z,18.43
2022-11-26T20:33:53.004Z,14.27
2022-11-26T20:36:23.068Z,17.53
2022-11-26T20:38:54.549Z,18.30
2022-11-26T20:41:24.194Z,16.17
2022-11-26T20:43:58.674Z,13.87
2022-11-26T20:46:28.695Z,15.87
2022-11-26T20:48:57.689Z,15.57
2022-11-26T20:51:26.398Z,20.23
2022-11-26T20:53:58.394Z,14.00
2022-11-26T20:56:27.023Z,15.30
2022-11-26T20:58:56.920Z,14.57
2022-11-26T21:01:27.397Z,14.80
2022-11-26T21:03:57.007Z,13.63
2022-11-26T21:06:30.420Z,13.13
2022-11-26T21:09:00.912Z,14.37
2022-11-26T21:11:30.010Z,14.60
2022-11-26T21:14:01.669Z,17.00
2022-11-26T21:16:30.653Z,13.03
2022-11-26T21:18:59.763Z,15.07
2022-11-26T21:21:29.198Z,14.57
2022-11-26T21:23:58.856Z,13.20
2022-11-26T21:26:28.074Z,16.30
2022-11-26T21:28:58.403Z,13.70
2022-11-26T21:31:29.881Z,13.40
2022-11-26T21:34:00.881Z,16.83
2022-11-26T21:36:30.361Z,15.77
2022-11-26T21:38:58.728Z,14.43
2022-11-26T21:41:27.618Z,14.73
2022-11-26T21:43:56.294Z,12.77
2022-11-26T21:46:27.741Z,15.10
2022-11-26T21:48:56.966Z,11.47
2022-11-26T21:51:27.254Z,14.27
2022-11-26T21:53:56.548Z,14.37
2022-11-26T21:56:26.712Z,12.97
2022-11-26T21:58:57.119Z,13.90
2022-11-26T22:01:30.407Z,11.43
2022-11-26T22:04:01.907Z,12.60
2022-11-26T22:06:30.616Z,14.03
2022-11-26T22:08:58.926Z,16.97
2022-11-26T22:11:29.308Z,11.67
2022-11-26T22:13:59.023Z,14.83
2022-11-26T22:16:30.977Z,13.20
2022-11-26T22:19:00.779Z,15.17
2022-11-26T22:21:32.054Z,12.90
2022-11-26T22:24:01.593Z,9.03
2022-11-26T22:26:32.777Z,16.13
2022-11-26T22:29:01.488Z,11.87
2022-11-26T22:31:33.375Z,13.83
2022-11-26T22:34:04.977Z,12.10
2022-11-26T22:36:34.011Z,10.33
2022-11-26T22:39:04.816Z,10.67
2022-11-26T22:41:33.776Z,10.83
2022-11-26T22:44:02.080Z,12.50
2022-11-26T22:46:34.247Z,11.37
2022-11-26T22:49:03.703Z,10.63
2022-11-26T22:51:33.787Z,11.73
2022-11-26T22:54:04.172Z,8.27
2022-11-26T22:56:33.138Z,13.20
2022-11-26T22:59:02.538Z,10.07
2022-11-26T23:01:34.489Z,13.37
2022-11-26T23:04:05.459Z,8.70
2022-11-26T23:06:36.383Z,11.43
2022-11-26T23:09:06.719Z,15.87
2022-11-26T23:11:37.179Z,14.10
2022-11-26T23:14:07.624Z,10.23
2022-11-26T23:16:38.873Z,12.37
2022-11-26T23:19:07.768Z,11.33
2022-11-26T23:21:38.496Z,11.90
2022-11-26T23:24:07.822Z,12.87
2022-11-26T23:26:38.258Z,12.53
2022-11-26T23:29:07.711Z,11.60
2022-11-26T23:31:39.348Z,9.77
2022-11-26T23:34:08.042Z,11.80
2022-11-26T23:36:36.953Z,12.00
2022-11-26T23:39:08.510Z,11.40
2022-11-26T23:41:36.914Z,9.37
2022-11-26T23:44:05.320Z,11.70
2022-11-26T23:46:35.389Z,10.30
2022-11-26T23:49:05.762Z,7.87
2022-11-26T23:51:34.952Z,9.37
2022-11-26T23:54:03.557Z,10.60
2022-11-26T23:56:33.260Z,15.77
2022-11-26T23:59:03.273Z,9.53
